sensor_id;sensor_type;location;lat;lon;timestamp;P1;durP1;ratioP1;P2;durP2;ratioP2
673;SDS011;319;48.764;9.174;2023-04-06T00:01:36;3.30;;;3.20;;
673;SDS011;319;48.764;9.174;2023-04-06T00:04:04;4.43;;;4.33;;
673;SDS011;319;48.764;9.174;2023-04-06T00:06:31;2.03;;;2.03;;
673;SDS011;319;48.764;9.174;2023-04-06T00:08:58;1.50;;;1.50;;
673;SDS011;319;48.764;9.174;2023-04-06T00:11:27;1.50;;;1.50;;
673;SDS011;319;48.764;9.174;2023-04-06T00:13:54;1.30;;;1.30;;
673;SDS011;319;48.764;9.174;2023-04-06T00:16:21;1.40;;;1.40;;
673;SDS011;319;48.764;9.174;2023-04-06T00:18:47;1.30;;;1.30;;
673;SDS011;319;48.764;9.174;2023-04-06T00:21:14;1.40;;;1.40;;
673;SDS011;319;48.764;9.174;2023-04-06T00:23:41;2.27;;;2.27;;
673;SDS011;319;48.764;9.174;2023-04-06T00:26:08;1.67;;;1.67;;
673;SDS011;319;48.764;9.174;2023-04-06T00:28:36;1.63;;;1.63;;
673;SDS011;319;48.764;9.174;2023-04-06T00:31:04;1.50;;;1.50;;
673;SDS011;319;48.764;9.174;2023-04-06T00:33:30;1.50;;;1.50;;
673;SDS011;319;48.764;9.174;2023-04-06T00:35:59;1.30;;;1.30;;
673;SDS011;319;48.764;9.174;2023-04-06T00:38:26;1.43;;;1.43;;
673;SDS011;319;48.764;9.174;2023-04-06T00:40:53;1.30;;;1.30;;
673;SDS011;319;48.764;9.174;2023-04-06T00:43:20;1.40;;;1.40;;
673;SDS011;319;48.764;9.174;2023-04-06T00:45:48;1.70;;;1.70;;
673;SDS011;319;48.764;9.174;2023-04-06T00:48:15;2.00;;;2.00;;
673;SDS011;319;48.764;9.174;2023-04-06T00:50:55;3.90;;;3.80;;
673;SDS011;319;48.764;9.174;2023-04-06T00:53:21;4.70;;;4.60;;
673;SDS011;319;48.764;9.174;2023-04-06T00:55:48;5.53;;;5.43;;
673;SDS011;319;48.764;9.174;2023-04-06T00:58:15;4.80;;;4.70;;
673;SDS011;319;48.764;9.174;2023-04-06T01:00:42;3.50;;;3.40;;
673;SDS011;319;48.764;9.174;2023-04-06T01:03:10;3.90;;;3.80;;
673;SDS011;319;48.764;9.174;2023-04-06T01:05:37;2.40;;;2.40;;
673;SDS011;319;48.764;9.174;2023-04-06T01:08:05;3.50;;;3.40;;
673;SDS011;319;48.764;9.174;2023-04-06T01:10:32;4.20;;;4.10;;
673;SDS011;319;48.764;9.174;2023-04-06T01:12:59;5.23;;;5.13;;
673;SDS011;319;48.764;9.174;2023-04-06T01:15:26;5.80;;;5.70;;
673;SDS011;319;48.764;9.174;2023-04-06T01:17:54;3.47;;;3.37;;
673;SDS011;319;48.764;9.174;2023-04-06T01:20:22;4.37;;;4.27;;
673;SDS011;319;48.764;9.174;2023-04-06T01:22:52;1.57;;;1.57;;
673;SDS011;319;48.764;9.174;2023-04-06T01:25:19;1.30;;;1.30;;
673;SDS011;319;48.764;9.174;2023-04-06T01:27:46;1.30;;;1.30;;
673;SDS011;319;48.764;9.174;2023-04-06T01:30:13;1.50;;;1.50;;
673;SDS011;319;48.764;9.174;2023-04-06T01:32:41;1.40;;;1.40;;
673;SDS011;319;48.764;9.174;2023-04-06T01:35:08;1.33;;;1.33;;
673;SDS011;319;48.764;9.174;2023-04-06T01:37:35;10.73;;;10.33;;
673;SDS011;319;48.764;9.174;2023-04-06T01:40:04;7.70;;;7.50;;
673;SDS011;319;48.764;9.174;2023-04-06T01:42:32;7.97;;;7.77;;
673;SDS011;319;48.764;9.174;2023-04-06T01:44:58;6.97;;;6.77;;
673;SDS011;319;48.764;9.174;2023-04-06T01:47:28;5.30;;;5.20;;
673;SDS011;319;48.764;9.174;2023-04-06T01:49:55;4.97;;;4.87;;
673;SDS011;319;48.764;9.174;2023-04-06T01:52:22;4.50;;;4.40;;
673;SDS011;319;48.764;9.174;2023-04-06T01:54:49;2.67;;;2.67;;
673;SDS011;319;48.764;9.174;2023-04-06T01:57:18;1.70;;;1.70;;
673;SDS011;319;48.764;9.174;2023-04-06T01:59:45;7.67;;;7.47;;
673;SDS011;319;48.764;9.174;2023-04-06T02:02:12;7.60;;;7.40;;
673;SDS011;319;48.764;9.174;2023-04-06T02:04:39;2.77;;;2.77;;
673;SDS011;319;48.764;9.174;2023-04-06T02:07:05;2.10;;;2.10;;
673;SDS011;319;48.764;9.174;2023-04-06T02:09:32;4.07;;;3.97;;
673;SDS011;319;48.764;9.174;2023-04-06T02:12:02;3.70;;;3.60;;
673;SDS011;319;48.764;9.174;2023-04-06T02:14:31;3.20;;;3.10;;
673;SDS011;319;48.764;9.174;2023-04-06T02:16:59;3.67;;;3.57;;
673;SDS011;319;48.764;9.174;2023-04-06T02:19:26;3.60;;;3.50;;
673;SDS011;319;48.764;9.174;2023-04-06T02:21:53;3.10;;;3.00;;
673;SDS011;319;48.764;9.174;2023-04-06T02:24:19;3.40;;;3.30;;
673;SDS011;319;48.764;9.174;2023-04-06T02:26:46;1.80;;;1.80;;
673;SDS011;319;48.764;9.174;2023-04-06T02:29:13;1.50;;;1.50;;
673;SDS011;319;48.764;9.174;2023-04-06T02:31:41;1.47;;;1.47;;
673;SDS011;319;48.764;9.174;2023-04-06T02:34:08;1.50;;;1.50;;
673;SDS011;319;48.764;9.174;2023-04-06T02:36:37;1.30;;;1.30;;
673;SDS011;319;48.764;9.174;2023-04-06T02:39:04;1.30;;;1.30;;
673;SDS011;319;48.764;9.174;2023-04-06T02:41:31;1.20;;;1.20;;
673;SDS011;319;48.764;9.174;2023-04-06T02:43:58;1.10;;;1.10;;
673;SDS011;319;48.764;9.174;2023-04-06T02:46:25;1.40;;;1.40;;
673;SDS011;319;48.764;9.174;2023-04-06T02:48:53;1.30;;;1.30;;
673;SDS011;319;48.764;9.174;2023-04-06T02:51:20;1.47;;;1.47;;
673;SDS011;319;48.764;9.174;2023-04-06T02:53:47;1.40;;;1.40;;
673;SDS011;319;48.764;9.174;2023-04-06T02:56:14;1.53;;;1.53;;
673;SDS011;319;48.764;9.174;2023-04-06T02:58:40;1.90;;;1.90;;
673;SDS011;319;48.764;9.174;2023-04-06T03:01:07;2.40;;;2.40;;
673;SDS011;319;48.764;9.174;2023-04-06T03:03:34;1.90;;;1.90;;
673;SDS011;319;48.764;9.174;2023-04-06T03:06:03;1.80;;;1.80;;
673;SDS011;319;48.764;9.174;2023-04-06T03:08:30;1.43;;;1.43;;
673;SDS011;319;48.764;9.174;2023-04-06T03:10:57;1.40;;;1.40;;
673;SDS011;319;48.764;9.174;2023-04-06T03:13:23;1.30;;;1.30;;
673;SDS011;319;48.764;9.174;2023-04-06T03:15:50;1.40;;;1.40;;
673;SDS011;319;48.764;9.174;2023-04-06T03:18:20;1.30;;;1.30;;
673;SDS011;319;48.764;9.174;2023-04-06T03:20:48;1.60;;;1.60;;
673;SDS011;319;48.764;9.174;2023-04-06T03:23:16;1.57;;;1.57;;
673;SDS011;319;48.764;9.174;2023-04-06T03:25:45;1.60;;;1.60;;
673;SDS011;319;48.764;9.174;2023-04-06T03:28:12;1.50;;;1.50;;
673;SDS011;319;48.764;9.174;2023-04-06T03:30:39;1.30;;;1.30;;
673;SDS011;319;48.764;9.174;2023-04-06T03:33:06;1.27;;;1.27;;
673;SDS011;319;48.764;9.174;2023-04-06T03:35:33;9.00;;;8.80;;
673;SDS011;319;48.764;9.174;2023-04-06T03:38:01;1.30;;;1.30;;
673;SDS011;319;48.764;9.174;2023-04-06T03:40:30;1.40;;;1.40;;
673;SDS011;319;48.764;9.174;2023-04-06T03:42:57;1.20;;;1.20;;
673;SDS011;319;48.764;9.174;2023-04-06T03:45:24;1.30;;;1.30;;
673;SDS011;319;48.764;9.174;2023-04-06T03:47:51;1.30;;;1.30;;
673;SDS011;319;48.764;9.174;2023-04-06T03:50:18;1.10;;;1.10;;
673;SDS011;319;48.764;9.174;2023-04-06T03:52:45;1.30;;;1.30;;
673;SDS011;319;48.764;9.174;2023-04-06T03:55:11;1.20;;;1.20;;
673;SDS011;319;48.764;9.174;2023-04-06T03:57:40;1.40;;;1.40;;
673;SDS011;319;48.764;9.174;2023-04-06T04:00:07;1.40;;;1.40;;
673;SDS011;319;48.764;9.174;2023-04-06T04:02:35;1.30;;;1.30;;
673;SDS011;319;48.764;9.174;2023-04-06T04:05:02;1.30;;;1.30;;
673;SDS011;319;48.764;9.174;2023-04-06T04:07:29;1.20;;;1.20;;
673;SDS011;319;48.764;9.174;2023-04-06T04:09:56;1.30;;;1.30;;
673;SDS011;319;48.764;9.174;2023-04-06T04:12:23;1.30;;;1.30;;
673;SDS011;319;48.764;9.174;2023-04-06T04:14:51;1.30;;;1.30;;
673;SDS011;319;48.764;9.174;2023-04-06T04:17:19;1.20;;;1.20;;
673;SDS011;319;48.764;9.174;2023-04-06T04:19:47;1.40;;;1.40;;
673;SDS011;319;48.764;9.174;2023-04-06T04:22:14;1.20;;;1.20;;
673;SDS011;319;48.764;9.174;2023-04-06T04:24:41;1.20;;;1.20;;
673;SDS011;319;48.764;9.174;2023-04-06T04:27:08;1.30;;;1.30;;
673;SDS011;319;48.764;9.174;2023-04-06T04:29:35;1.30;;;1.30;;
673;SDS011;319;48.764;9.174;2023-04-06T04:32:04;1.30;;;1.30;;
673;SDS011;319;48.764;9.174;2023-04-06T04:34:31;1.30;;;1.30;;
673;SDS011;319;48.764;9.174;2023-04-06T04:36:58;1.20;;;1.20;;
673;SDS011;319;48.764;9.174;2023-04-06T04:39:25;1.40;;;1.40;;
673;SDS011;319;48.764;9.174;2023-04-06T04:41:52;1.30;;;1.30;;
673;SDS011;319;48.764;9.174;2023-04-06T04:44:19;1.30;;;1.30;;
673;SDS011;319;48.764;9.174;2023-04-06T04:46:46;1.30;;;1.30;;
673;SDS011;319;48.764;9.174;2023-04-06T04:49:14;1.40;;;1.40;;
673;SDS011;319;48.764;9.174;2023-04-06T04:51:41;1.20;;;1.20;;
673;SDS011;319;48.764;9.174;2023-04-06T04:54:08;1.40;;;1.40;;
673;SDS011;319;48.764;9.174;2023-04-06T04:56:34;1.27;;;1.27;;
673;SDS011;319;48.764;9.174;2023-04-06T04:59:01;1.40;;;1.40;;
673;SDS011;319;48.764;9.174;2023-04-06T05:01:28;1.40;;;1.40;;
673;SDS011;319;48.764;9.174;2023-04-06T05:03:55;1.30;;;1.30;;
673;SDS011;319;48.764;9.174;2023-04-06T05:06:24;1.40;;;1.40;;
673;SDS011;319;48.764;9.174;2023-04-06T05:08:51;1.30;;;1.30;;
673;SDS011;319;48.764;9.174;2023-04-06T05:11:18;1.30;;;1.30;;
673;SDS011;319;48.764;9.174;2023-04-06T05:13:46;1.30;;;1.30;;
673;SDS011;319;48.764;9.174;2023-04-06T05:16:13;1.30;;;1.30;;
673;SDS011;319;48.764;9.174;2023-04-06T05:18:40;1.10;;;1.10;;
673;SDS011;319;48.764;9.174;2023-04-06T05:21:07;1.40;;;1.40;;
673;SDS011;319;48.764;9.174;2023-04-06T05:23:35;1.20;;;1.20;;
673;SDS011;319;48.764;9.174;2023-04-06T05:26:02;1.40;;;1.40;;
673;SDS011;319;48.764;9.174;2023-04-06T05:28:29;1.30;;;1.30;;
673;SDS011;319;48.764;9.174;2023-04-06T05:30:56;1.30;;;1.30;;
673;SDS011;319;48.764;9.174;2023-04-06T05:33:23;1.40;;;1.40;;
673;SDS011;319;48.764;9.174;2023-04-06T05:35:51;1.30;;;1.30;;
673;SDS011;319;48.764;9.174;2023-04-06T05:38:18;1.30;;;1.30;;
673;SDS011;319;48.764;9.174;2023-04-06T05:40:46;1.30;;;1.30;;
673;SDS011;319;48.764;9.174;2023-04-06T05:43:13;1.30;;;1.30;;
673;SDS011;319;48.764;9.174;2023-04-06T05:45:40;1.20;;;1.20;;
673;SDS011;319;48.764;9.174;2023-04-06T05:48:07;1.70;;;1.70;;
673;SDS011;319;48.764;9.174;2023-04-06T05:50:34;1.20;;;1.20;;
673;SDS011;319;48.764;9.174;2023-04-06T05:53:00;1.33;;;1.33;;
673;SDS011;319;48.764;9.174;2023-04-06T05:55:27;1.30;;;1.30;;
673;SDS011;319;48.764;9.174;2023-04-06T05:57:56;1.20;;;1.20;;
673;SDS011;319;48.764;9.174;2023-04-06T06:00:22;1.20;;;1.20;;
673;SDS011;319;48.764;9.174;2023-04-06T06:02:53;1.20;;;1.20;;
673;SDS011;319;48.764;9.174;2023-04-06T06:05:20;1.20;;;1.20;;
673;SDS011;319;48.764;9.174;2023-04-06T06:07:46;1.30;;;1.30;;
673;SDS011;319;48.764;9.174;2023-04-06T06:10:13;1.20;;;1.20;;
673;SDS011;319;48.764;9.174;2023-04-06T06:12:40;1.20;;;1.20;;
673;SDS011;319;48.764;9.174;2023-04-06T06:15:09;1.30;;;1.30;;
673;SDS011;319;48.764;9.174;2023-04-06T06:17:36;1.30;;;1.30;;
673;SDS011;319;48.764;9.174;2023-04-06T06:20:04;1.30;;;1.30;;
673;SDS011;319;48.764;9.174;2023-04-06T06:22:32;1.47;;;1.47;;
673;SDS011;319;48.764;9.174;2023-04-06T06:24:59;1.30;;;1.30;;
673;SDS011;319;48.764;9.174;2023-04-06T06:27:26;1.20;;;1.20;;
673;SDS011;319;48.764;9.174;2023-04-06T06:29:53;1.17;;;1.17;;
673;SDS011;319;48.764;9.174;2023-04-06T06:32:21;1.10;;;1.10;;
673;SDS011;319;48.764;9.174;2023-04-06T06:34:48;1.20;;;1.20;;
673;SDS011;319;48.764;9.174;2023-04-06T06:37:15;1.20;;;1.20;;
673;SDS011;319;48.764;9.174;2023-04-06T06:39:42;1.20;;;1.20;;
673;SDS011;319;48.764;9.174;2023-04-06T06:42:09;1.20;;;1.20;;
673;SDS011;319;48.764;9.174;2023-04-06T06:44:36;1.20;;;1.20;;
673;SDS011;319;48.764;9.174;2023-04-06T06:47:03;5.90;;;5.37;;
673;SDS011;319;48.764;9.174;2023-04-06T06:49:31;1.10;;;1.10;;
673;SDS011;319;48.764;9.174;2023-04-06T06:51:58;1.20;;;1.20;;
673;SDS011;319;48.764;9.174;2023-04-06T06:54:25;1.10;;;1.10;;
673;SDS011;319;48.764;9.174;2023-04-06T06:56:52;1.17;;;1.17;;
673;SDS011;319;48.764;9.174;2023-04-06T06:59:19;7.70;;;7.50;;
673;SDS011;319;48.764;9.174;2023-04-06T07:01:47;3.10;;;3.00;;
673;SDS011;319;48.764;9.174;2023-04-06T07:04:14;6.97;;;6.77;;
673;SDS011;319;48.764;9.174;2023-04-06T07:06:42;8.40;;;8.20;;
673;SDS011;319;48.764;9.174;2023-04-06T07:09:09;13.53;;;13.23;;
673;SDS011;319;48.764;9.174;2023-04-06T07:11:36;16.30;;;15.90;;
673;SDS011;319;48.764;9.174;2023-04-06T07:14:02;3.13;;;3.03;;
673;SDS011;319;48.764;9.174;2023-04-06T07:16:30;4.50;;;4.40;;
673;SDS011;319;48.764;9.174;2023-04-06T07:18:56;2.87;;;2.80;;
673;SDS011;319;48.764;9.174;2023-04-06T07:21:26;6.90;;;6.70;;
673;SDS011;319;48.764;9.174;2023-04-06T07:23:54;1.00;;;1.00;;
673;SDS011;319;48.764;9.174;2023-04-06T07:26:24;0.80;;;0.80;;
673;SDS011;319;48.764;9.174;2023-04-06T07:28:51;0.80;;;0.80;;
673;SDS011;319;48.764;9.174;2023-04-06T07:31:18;0.80;;;0.80;;
673;SDS011;319;48.764;9.174;2023-04-06T07:33:45;2.07;;;2.07;;
673;SDS011;319;48.764;9.174;2023-04-06T07:36:12;1.90;;;1.90;;
673;SDS011;319;48.764;9.174;2023-04-06T07:38:39;3.30;;;3.20;;
673;SDS011;319;48.764;9.174;2023-04-06T07:41:07;5.70;;;5.60;;
673;SDS011;319;48.764;9.174;2023-04-06T07:43:34;5.53;;;5.43;;
673;SDS011;319;48.764;9.174;2023-04-06T07:46:04;0.80;;;0.80;;
673;SDS011;319;48.764;9.174;2023-04-06T07:48:31;0.80;;;0.80;;
673;SDS011;319;48.764;9.174;2023-04-06T07:51:01;1.00;;;1.00;;
673;SDS011;319;48.764;9.174;2023-04-06T07:53:28;2.17;;;2.17;;
673;SDS011;319;48.764;9.174;2023-04-06T07:55:55;3.20;;;3.10;;
673;SDS011;319;48.764;9.174;2023-04-06T07:58:24;1.30;;;1.30;;
673;SDS011;319;48.764;9.174;2023-04-06T08:00:51;1.10;;;1.10;;
673;SDS011;319;48.764;9.174;2023-04-06T08:03:18;1.00;;;1.00;;
673;SDS011;319;48.764;9.174;2023-04-06T08:05:52;0.80;;;0.80;;
673;SDS011;319;48.764;9.174;2023-04-06T08:08:19;0.90;;;0.90;;
673;SDS011;319;48.764;9.174;2023-04-06T08:10:47;0.80;;;0.80;;
673;SDS011;319;48.764;9.174;2023-04-06T08:13:14;0.80;;;0.80;;
673;SDS011;319;48.764;9.174;2023-04-06T08:15:42;0.90;;;0.90;;
673;SDS011;319;48.764;9.174;2023-04-06T08:18:09;1.30;;;1.30;;
673;SDS011;319;48.764;9.174;2023-04-06T08:20:37;1.10;;;1.10;;
673;SDS011;319;48.764;9.174;2023-04-06T08:23:05;1.00;;;1.00;;
673;SDS011;319;48.764;9.174;2023-04-06T08:25:35;2.00;;;2.00;;
673;SDS011;319;48.764;9.174;2023-04-06T08:28:02;1.40;;;1.40;;
673;SDS011;319;48.764;9.174;2023-04-06T08:30:29;1.53;;;1.53;;
673;SDS011;319;48.764;9.174;2023-04-06T08:32:58;0.80;;;0.80;;
673;SDS011;319;48.764;9.174;2023-04-06T08:35:25;0.80;;;0.80;;
673;SDS011;319;48.764;9.174;2023-04-06T08:37:52;0.80;;;0.80;;
673;SDS011;319;48.764;9.174;2023-04-06T08:40:19;0.90;;;0.90;;
673;SDS011;319;48.764;9.174;2023-04-06T08:42:48;4.80;;;4.70;;
673;SDS011;319;48.764;9.174;2023-04-06T08:45:16;4.33;;;4.23;;
673;SDS011;319;48.764;9.174;2023-04-06T08:47:46;6.10;;;6.00;;
673;SDS011;319;48.764;9.174;2023-04-06T08:50:15;4.40;;;4.30;;
673;SDS011;319;48.764;9.174;2023-04-06T08:52:43;8.37;;;8.17;;
673;SDS011;319;48.764;9.174;2023-04-06T08:55:12;1.53;;;1.53;;
673;SDS011;319;48.764;9.174;2023-04-06T08:57:39;11.80;;;11.50;;
673;SDS011;319;48.764;9.174;2023-04-06T09:00:07;1.17;;;1.17;;
673;SDS011;319;48.764;9.174;2023-04-06T09:02:37;1.77;;;1.77;;
673;SDS011;319;48.764;9.174;2023-04-06T09:05:05;0.90;;;0.90;;
673;SDS011;319;48.764;9.174;2023-04-06T09:07:36;0.90;;;0.90;;
673;SDS011;319;48.764;9.174;2023-04-06T09:10:03;0.80;;;0.80;;
673;SDS011;319;48.764;9.174;2023-04-06T09:12:31;0.90;;;0.90;;
673;SDS011;319;48.764;9.174;2023-04-06T09:14:58;0.80;;;0.80;;
673;SDS011;319;48.764;9.174;2023-04-06T09:17:27;0.90;;;0.90;;
673;SDS011;319;48.764;9.174;2023-04-06T09:19:57;0.87;;;0.87;;
673;SDS011;319;48.764;9.174;2023-04-06T09:22:25;0.90;;;0.90;;
673;SDS011;319;48.764;9.174;2023-04-06T09:25:02;1.00;;;1.00;;
673;SDS011;319;48.764;9.174;2023-04-06T09:27:29;1.00;;;1.00;;
673;SDS011;319;48.764;9.174;2023-04-06T09:30:02;1.43;;;1.43;;
673;SDS011;319;48.764;9.174;2023-04-06T09:32:30;3.83;;;3.73;;
673;SDS011;319;48.764;9.174;2023-04-06T09:35:05;3.07;;;2.97;;
673;SDS011;319;48.764;9.174;2023-04-06T09:37:32;5.13;;;5.03;;
673;SDS011;319;48.764;9.174;2023-04-06T09:40:03;3.00;;;2.90;;
673;SDS011;319;48.764;9.174;2023-04-06T09:42:32;12.40;;;12.10;;
673;SDS011;319;48.764;9.174;2023-04-06T09:44:59;7.43;;;7.23;;
673;SDS011;319;48.764;9.174;2023-04-06T09:47:26;1.00;;;1.00;;
673;SDS011;319;48.764;9.174;2023-04-06T09:49:55;2.00;;;2.00;;
673;SDS011;319;48.764;9.174;2023-04-06T09:52:24;1.00;;;1.00;;
673;SDS011;319;48.764;9.174;2023-04-06T09:54:54;1.30;;;1.30;;
673;SDS011;319;48.764;9.174;2023-04-06T09:57:28;1.00;;;1.00;;
673;SDS011;319;48.764;9.174;2023-04-06T10:00:01;1.00;;;1.00;;
673;SDS011;319;48.764;9.174;2023-04-06T10:02:34;3.10;;;3.00;;
673;SDS011;319;48.764;9.174;2023-04-06T10:05:09;2.57;;;2.57;;
673;SDS011;319;48.764;9.174;2023-04-06T10:07:39;1.00;;;1.00;;
673;SDS011;319;48.764;9.174;2023-04-06T10:10:08;3.40;;;3.30;;
673;SDS011;319;48.764;9.174;2023-04-06T10:12:37;5.90;;;5.80;;
673;SDS011;319;48.764;9.174;2023-04-06T10:15:06;5.50;;;5.40;;
673;SDS011;319;48.764;9.174;2023-04-06T10:17:34;6.07;;;5.97;;
673;SDS011;319;48.764;9.174;2023-04-06T10:20:02;5.90;;;5.80;;
673;SDS011;319;48.764;9.174;2023-04-06T10:22:36;6.37;;;6.27;;
673;SDS011;319;48.764;9.174;2023-04-06T10:25:10;6.00;;;5.90;;
673;SDS011;319;48.764;9.174;2023-04-06T10:27:38;4.60;;;4.50;;
673;SDS011;319;48.764;9.174;2023-04-06T10:30:06;4.53;;;4.43;;
673;SDS011;319;48.764;9.174;2023-04-06T10:32:34;5.50;;;5.40;;
673;SDS011;319;48.764;9.174;2023-04-06T10:35:05;10.93;;;7.43;;
673;SDS011;319;48.764;9.174;2023-04-06T10:37:45;5.50;;;5.40;;
673;SDS011;319;48.764;9.174;2023-04-06T10:40:20;5.50;;;5.40;;
673;SDS011;319;48.764;9.174;2023-04-06T10:42:50;5.73;;;5.63;;
673;SDS011;319;48.764;9.174;2023-04-06T10:47:49;5.03;;;4.93;;
673;SDS011;319;48.764;9.174;2023-04-06T10:50:18;5.10;;;5.00;;
673;SDS011;319;48.764;9.174;2023-04-06T10:52:45;1.10;;;1.10;;
673;SDS011;319;48.764;9.174;2023-04-06T10:55:12;1.93;;;1.93;;
673;SDS011;319;48.764;9.174;2023-04-06T10:57:40;3.30;;;3.20;;
673;SDS011;319;48.764;9.174;2023-04-06T11:00:12;3.63;;;3.53;;
673;SDS011;319;48.764;9.174;2023-04-06T11:02:40;4.13;;;4.03;;
673;SDS011;319;48.764;9.174;2023-04-06T11:05:07;5.33;;;5.23;;
673;SDS011;319;48.764;9.174;2023-04-06T11:07:34;4.70;;;4.60;;
673;SDS011;319;48.764;9.174;2023-04-06T11:10:01;4.40;;;4.30;;
673;SDS011;319;48.764;9.174;2023-04-06T11:12:29;4.80;;;4.70;;
673;SDS011;319;48.764;9.174;2023-04-06T11:14:57;5.90;;;5.80;;
673;SDS011;319;48.764;9.174;2023-04-06T11:17:30;1.00;;;1.00;;
673;SDS011;319;48.764;9.174;2023-04-06T11:19:58;1.00;;;1.00;;
673;SDS011;319;48.764;9.174;2023-04-06T11:22:25;0.90;;;0.90;;
673;SDS011;319;48.764;9.174;2023-04-06T11:24:52;0.90;;;0.90;;
673;SDS011;319;48.764;9.174;2023-04-06T11:27:19;0.97;;;0.97;;
673;SDS011;319;48.764;9.174;2023-04-06T11:29:46;1.00;;;1.00;;
673;SDS011;319;48.764;9.174;2023-04-06T11:32:19;1.00;;;1.00;;
673;SDS011;319;48.764;9.174;2023-04-06T11:34:48;1.00;;;1.00;;
673;SDS011;319;48.764;9.174;2023-04-06T11:37:16;0.90;;;0.90;;
673;SDS011;319;48.764;9.174;2023-04-06T11:39:46;1.10;;;1.10;;
673;SDS011;319;48.764;9.174;2023-04-06T11:42:20;1.00;;;1.00;;
673;SDS011;319;48.764;9.174;2023-04-06T11:44:49;1.10;;;1.10;;
673;SDS011;319;48.764;9.174;2023-04-06T11:47:18;1.00;;;1.00;;
673;SDS011;319;48.764;9.174;2023-04-06T11:49:47;1.00;;;1.00;;
673;SDS011;319;48.764;9.174;2023-04-06T11:52:15;1.00;;;1.00;;
673;SDS011;319;48.764;9.174;2023-04-06T11:54:43;0.97;;;0.97;;
673;SDS011;319;48.764;9.174;2023-04-06T11:57:11;1.00;;;1.00;;
673;SDS011;319;48.764;9.174;2023-04-06T11:59:38;1.00;;;1.00;;
673;SDS011;319;48.764;9.174;2023-04-06T12:02:05;1.00;;;1.00;;
673;SDS011;319;48.764;9.174;2023-04-06T12:04:32;1.03;;;1.03;;
673;SDS011;319;48.764;9.174;2023-04-06T12:07:01;1.10;;;1.10;;
673;SDS011;319;48.764;9.174;2023-04-06T12:09:28;1.10;;;1.10;;
673;SDS011;319;48.764;9.174;2023-04-06T12:11:56;1.00;;;1.00;;
673;SDS011;319;48.764;9.174;2023-04-06T12:14:23;1.00;;;1.00;;
673;SDS011;319;48.764;9.174;2023-04-06T12:16:50;0.90;;;0.90;;
673;SDS011;319;48.764;9.174;2023-04-06T12:19:17;1.60;;;1.60;;
673;SDS011;319;48.764;9.174;2023-04-06T12:21:43;5.07;;;4.97;;
673;SDS011;319;48.764;9.174;2023-04-06T12:24:12;4.50;;;4.40;;
673;SDS011;319;48.764;9.174;2023-04-06T12:26:38;3.60;;;3.50;;
673;SDS011;319;48.764;9.174;2023-04-06T12:29:06;3.00;;;2.90;;
673;SDS011;319;48.764;9.174;2023-04-06T12:31:34;3.93;;;3.83;;
673;SDS011;319;48.764;9.174;2023-04-06T12:34:03;4.10;;;4.00;;
673;SDS011;319;48.764;9.174;2023-04-06T12:36:30;4.80;;;4.70;;
673;SDS011;319;48.764;9.174;2023-04-06T12:38:57;4.10;;;4.00;;
673;SDS011;319;48.764;9.174;2023-04-06T12:41:26;4.50;;;4.40;;
673;SDS011;319;48.764;9.174;2023-04-06T12:43:54;4.13;;;4.03;;
673;SDS011;319;48.764;9.174;2023-04-06T12:46:20;4.60;;;4.50;;
673;SDS011;319;48.764;9.174;2023-04-06T12:48:47;4.40;;;4.30;;
673;SDS011;319;48.764;9.174;2023-04-06T12:51:15;4.30;;;4.20;;
673;SDS011;319;48.764;9.174;2023-04-06T12:53:43;1.73;;;1.73;;
673;SDS011;319;48.764;9.174;2023-04-06T12:56:14;1.00;;;1.00;;
673;SDS011;319;48.764;9.174;2023-04-06T12:58:43;1.20;;;1.20;;
673;SDS011;319;48.764;9.174;2023-04-06T13:01:10;1.30;;;1.30;;
673;SDS011;319;48.764;9.174;2023-04-06T13:03:38;1.30;;;1.30;;
673;SDS011;319;48.764;9.174;2023-04-06T13:06:04;1.30;;;1.30;;
673;SDS011;319;48.764;9.174;2023-04-06T13:08:33;1.30;;;1.30;;
673;SDS011;319;48.764;9.174;2023-04-06T13:11:01;1.10;;;1.10;;
673;SDS011;319;48.764;9.174;2023-04-06T13:13:28;1.20;;;1.20;;
673;SDS011;319;48.764;9.174;2023-04-06T13:15:58;1.13;;;1.13;;
673;SDS011;319;48.764;9.174;2023-04-06T13:18:27;1.10;;;1.10;;
673;SDS011;319;48.764;9.174;2023-04-06T13:20:54;1.00;;;1.00;;
673;SDS011;319;48.764;9.174;2023-04-06T13:23:21;1.00;;;1.00;;
673;SDS011;319;48.764;9.174;2023-04-06T13:25:48;1.00;;;1.00;;
673;SDS011;319;48.764;9.174;2023-04-06T13:28:23;1.07;;;1.07;;
673;SDS011;319;48.764;9.174;2023-04-06T13:30:51;1.20;;;1.20;;
673;SDS011;319;48.764;9.174;2023-04-06T13:33:19;1.20;;;1.20;;
673;SDS011;319;48.764;9.174;2023-04-06T13:35:46;1.20;;;1.20;;
673;SDS011;319;48.764;9.174;2023-04-06T13:38:13;1.10;;;1.10;;
673;SDS011;319;48.764;9.174;2023-04-06T13:40:41;1.10;;;1.10;;
673;SDS011;319;48.764;9.174;2023-04-06T13:43:08;1.20;;;1.20;;
673;SDS011;319;48.764;9.174;2023-04-06T13:45:35;1.60;;;1.60;;
673;SDS011;319;48.764;9.174;2023-04-06T13:48:02;1.07;;;1.07;;
673;SDS011;319;48.764;9.174;2023-04-06T13:50:31;2.47;;;2.47;;
673;SDS011;319;48.764;9.174;2023-04-06T13:52:58;2.50;;;2.50;;
673;SDS011;319;48.764;9.174;2023-04-06T13:55:25;2.20;;;2.20;;
673;SDS011;319;48.764;9.174;2023-04-06T13:57:52;2.30;;;2.30;;
673;SDS011;319;48.764;9.174;2023-04-06T14:00:20;1.90;;;1.90;;
673;SDS011;319;48.764;9.174;2023-04-06T14:02:47;2.30;;;2.30;;
673;SDS011;319;48.764;9.174;2023-04-06T14:05:14;2.40;;;2.40;;
673;SDS011;319;48.764;9.174;2023-04-06T14:07:42;2.40;;;2.40;;
673;SDS011;319;48.764;9.174;2023-04-06T14:10:09;2.70;;;2.70;;
673;SDS011;319;48.764;9.174;2023-04-06T14:12:39;2.60;;;2.60;;
673;SDS011;319;48.764;9.174;2023-04-06T14:15:07;2.80;;;2.70;;
673;SDS011;319;48.764;9.174;2023-04-06T14:17:35;2.70;;;2.70;;
673;SDS011;319;48.764;9.174;2023-04-06T14:20:02;2.30;;;2.30;;
673;SDS011;319;48.764;9.174;2023-04-06T14:22:30;2.70;;;2.70;;
673;SDS011;319;48.764;9.174;2023-04-06T14:24:59;2.60;;;2.60;;
673;SDS011;319;48.764;9.174;2023-04-06T14:27:29;7.87;;;7.67;;
673;SDS011;319;48.764;9.174;2023-04-06T14:29:56;9.20;;;9.00;;
673;SDS011;319;48.764;9.174;2023-04-06T14:32:23;6.03;;;5.93;;
673;SDS011;319;48.764;9.174;2023-04-06T14:34:50;6.00;;;5.90;;
673;SDS011;319;48.764;9.174;2023-04-06T14:37:17;6.50;;;6.40;;
673;SDS011;319;48.764;9.174;2023-04-06T14:39:46;5.00;;;4.90;;
673;SDS011;319;48.764;9.174;2023-04-06T14:42:18;5.40;;;5.30;;
673;SDS011;319;48.764;9.174;2023-04-06T14:44:55;5.40;;;5.30;;
673;SDS011;319;48.764;9.174;2023-04-06T14:47:34;4.80;;;4.70;;
673;SDS011;319;48.764;9.174;2023-04-06T14:50:01;3.93;;;3.83;;
673;SDS011;319;48.764;9.174;2023-04-06T14:52:28;5.50;;;5.40;;
673;SDS011;319;48.764;9.174;2023-04-06T14:54:55;5.10;;;5.00;;
673;SDS011;319;48.764;9.174;2023-04-06T14:57:23;3.20;;;3.10;;
673;SDS011;319;48.764;9.174;2023-04-06T14:59:52;3.57;;;3.47;;
673;SDS011;319;48.764;9.174;2023-04-06T15:02:31;3.50;;;3.40;;
673;SDS011;319;48.764;9.174;2023-04-06T15:04:58;3.30;;;3.20;;
673;SDS011;319;48.764;9.174;2023-04-06T15:07:25;4.10;;;4.00;;
673;SDS011;319;48.764;9.174;2023-04-06T15:09:52;3.20;;;3.10;;
673;SDS011;319;48.764;9.174;2023-04-06T15:12:21;4.77;;;4.67;;
673;SDS011;319;48.764;9.174;2023-04-06T15:14:50;5.00;;;4.90;;
673;SDS011;319;48.764;9.174;2023-04-06T15:17:17;5.20;;;5.10;;
673;SDS011;319;48.764;9.174;2023-04-06T15:19:44;3.80;;;3.70;;
673;SDS011;319;48.764;9.174;2023-04-06T15:22:18;4.00;;;3.90;;
673;SDS011;319;48.764;9.174;2023-04-06T15:24:45;3.80;;;3.70;;
673;SDS011;319;48.764;9.174;2023-04-06T15:27:12;4.70;;;4.60;;
673;SDS011;319;48.764;9.174;2023-04-06T15:29:43;4.60;;;4.50;;
673;SDS011;319;48.764;9.174;2023-04-06T15:32:10;3.70;;;3.60;;
673;SDS011;319;48.764;9.174;2023-04-06T15:34:37;4.00;;;3.90;;
673;SDS011;319;48.764;9.174;2023-04-06T15:37:04;4.20;;;4.10;;
673;SDS011;319;48.764;9.174;2023-04-06T15:39:31;4.20;;;4.10;;
673;SDS011;319;48.764;9.174;2023-04-06T15:41:58;3.60;;;3.50;;
673;SDS011;319;48.764;9.174;2023-04-06T15:44:25;3.40;;;3.30;;
673;SDS011;319;48.764;9.174;2023-04-06T15:46:54;3.90;;;3.80;;
673;SDS011;319;48.764;9.174;2023-04-06T15:49:21;3.90;;;3.80;;
673;SDS011;319;48.764;9.174;2023-04-06T15:51:48;3.90;;;3.80;;